createdAt,value
2022-10-11T00:00:44.291Z,92.16
2022-10-11T00:03:22.512Z,91.70
2022-10-11T00:06:03.477Z,91.46
2022-10-11T00:08:41.999Z,91.87
2022-10-11T00:11:20.186Z,92.16
2022-10-11T00:14:00.488Z,92.47
2022-10-11T00:16:42.481Z,92.33
2022-10-11T00:19:21.653Z,92.64
2022-10-11T00:22:01.119Z,92.48
2022-10-11T00:24:39.206Z,92.62
2022-10-11T00:27:17.441Z,92.32
2022-10-11T00:29:55.607Z,92.55
2022-10-11T00:32:36.557Z,92.13
2022-10-11T00:35:15.283Z,92.20
2022-10-11T00:37:52.012Z,92.38
2022-10-11T00:40:30.558Z,92.54
2022-10-11T00:43:20.914Z,93.08
2022-10-11T00:46:04.652Z,92.14
2022-10-11T00:48:48.763Z,92.44
2022-10-11T00:54:15.527Z,92.23
2022-10-11T00:57:03.716Z,92.80
2022-10-11T00:59:48.419Z,92.82
2022-10-11T01:02:28.438Z,93.23
2022-10-11T01:05:28.114Z,92.53
2022-10-11T01:08:08.832Z,92.70
2022-10-11T01:10:47.679Z,92.41
2022-10-11T01:14:06.694Z,91.89
2022-10-11T01:22:49.375Z,92.64
2022-10-11T01:29:07.293Z,91.97
2022-10-11T01:32:16.748Z,92.18
2022-10-11T01:35:20.966Z,92.42
2022-10-11T01:38:07.850Z,92.43
2022-10-11T01:40:53.224Z,92.15
2022-10-11T01:43:33.755Z,92.41
2022-10-11T01:46:14.012Z,91.72
2022-10-11T01:48:57.354Z,92.01
2022-10-11T01:51:42.997Z,92.65
2022-10-11T01:57:59.439Z,92.73
2022-10-11T02:00:57.888Z,92.00
2022-10-11T02:04:03.284Z,92.63
2022-10-11T02:07:08.328Z,92.45
2022-10-11T02:10:11.856Z,92.98
2022-10-11T02:13:01.074Z,92.94
2022-10-11T02:15:43.464Z,93.34
2022-10-11T02:18:27.967Z,92.99
2022-10-11T02:21:10.805Z,93.53
2022-10-11T02:23:55.641Z,93.52
2022-10-11T02:26:34.791Z,92.67
2022-10-11T02:29:16.530Z,92.95
2022-10-11T02:31:58.851Z,93.39
2022-10-11T02:34:45.450Z,92.99
2022-10-11T02:42:51.748Z,92.93
2022-10-11T02:45:36.521Z,93.00
2022-10-11T02:48:16.132Z,93.54
2022-10-11T02:50:56.358Z,94.08
2022-10-11T02:53:34.554Z,93.86
2022-10-11T02:56:13.683Z,94.09
2022-10-11T02:58:52.445Z,94.10
2022-10-11T03:01:30.846Z,93.64
2022-10-11T03:04:09.477Z,94.14
2022-10-11T03:06:49.774Z,93.60
2022-10-11T03:09:28.609Z,94.36
2022-10-11T03:12:08.515Z,94.00
2022-10-11T03:14:46.616Z,93.66
2022-10-11T03:17:36.005Z,93.67
2022-10-11T03:20:16.935Z,94.17
2022-10-11T03:22:56.038Z,94.23
2022-10-11T03:25:35.893Z,93.39
2022-10-11T03:28:15.228Z,94.03
2022-10-11T03:30:53.868Z,94.19
2022-10-11T03:33:33.738Z,94.32
2022-10-11T03:36:14.294Z,93.79
2022-10-11T03:38:53.734Z,94.35
2022-10-11T03:41:32.780Z,94.05
2022-10-11T03:44:12.935Z,93.83
2022-10-11T03:46:52.526Z,93.80
2022-10-11T03:49:32.983Z,93.37
2022-10-11T03:52:12.152Z,93.89
2022-10-11T03:54:51.605Z,93.40
2022-10-11T03:57:30.953Z,93.82
2022-10-11T04:00:10.135Z,93.76
2022-10-11T04:02:49.950Z,93.89
2022-10-11T04:05:30.729Z,93.63
2022-10-11T04:08:12.188Z,94.20
2022-10-11T04:10:53.011Z,93.54
2022-10-11T04:13:31.793Z,94.12
2022-10-11T04:16:10.974Z,93.86
2022-10-11T04:18:49.968Z,93.76
2022-10-11T04:21:29.011Z,93.72
2022-10-11T04:24:07.997Z,93.93
2022-10-11T04:26:47.651Z,93.64
2022-10-11T04:29:31.447Z,93.42
2022-10-11T04:32:13.062Z,93.68
2022-10-11T04:34:51.861Z,93.75
2022-10-11T04:37:31.195Z,93.59
2022-10-11T04:40:10.608Z,93.86
2022-10-11T04:42:52.118Z,93.47
2022-10-11T04:45:31.553Z,93.26
2022-10-11T04:48:10.757Z,93.71
2022-10-11T04:50:50.122Z,93.65
2022-10-11T04:53:28.880Z,93.18
2022-10-11T04:56:11.971Z,93.41
2022-10-11T04:58:52.196Z,94.05
2022-10-11T05:01:31.440Z,94.01
2022-10-11T05:04:10.284Z,93.81
2022-10-11T05:06:49.411Z,93.19
2022-10-11T05:09:27.674Z,93.22
2022-10-11T05:12:06.565Z,93.06
2022-10-11T05:14:45.575Z,93.17
2022-10-11T05:17:23.797Z,93.02
2022-10-11T05:20:02.484Z,93.25
2022-10-11T05:22:41.813Z,92.96
2022-10-11T05:25:20.034Z,92.48
2022-10-11T05:27:58.647Z,92.47
2022-10-11T05:30:37.995Z,92.75
2022-10-11T05:33:16.321Z,92.75
2022-10-11T05:35:54.715Z,92.27
2022-10-11T05:38:34.411Z,92.64
2022-10-11T05:41:15.563Z,92.59
2022-10-11T05:43:53.842Z,92.17
2022-10-11T05:46:33.439Z,92.39
2022-10-11T05:49:10.209Z,92.21
2022-10-11T05:51:49.293Z,92.67
2022-10-11T05:54:31.253Z,91.69
2022-10-11T05:57:10.176Z,91.68
2022-10-11T05:59:50.480Z,91.24
2022-10-11T06:02:29.741Z,91.21
2022-10-11T06:05:10.431Z,91.12
2022-10-11T06:07:48.917Z,91.16
2022-10-11T06:10:28.467Z,90.93
2022-10-11T06:13:07.895Z,90.72
2022-10-11T06:16:13.706Z,90.32
2022-10-11T06:19:24.667Z,90.39
2022-10-11T06:22:32.450Z,89.30
2022-10-11T06:25:24.373Z,89.17
2022-10-11T06:28:20.493Z,89.17
2022-10-11T06:31:18.731Z,89.00
2022-10-11T06:34:12.325Z,89.21
2022-10-11T06:37:16.395Z,88.37
2022-10-11T06:40:12.533Z,88.57
2022-10-11T06:43:09.481Z,87.07
2022-10-11T06:46:07.887Z,87.19
2022-10-11T06:49:07.200Z,87.01
2022-10-11T06:51:59.372Z,87.08
2022-10-11T06:54:56.581Z,86.13
2022-10-11T06:57:49.389Z,85.96
2022-10-11T07:01:03.731Z,85.10
2022-10-11T07:03:58.267Z,84.96
2022-10-11T07:06:51.168Z,84.83
2022-10-11T07:09:43.769Z,85.26
2022-10-11T07:12:11.187Z,84.15
2022-10-11T07:14:38.606Z,83.80
2022-10-11T07:17:06.068Z,83.20
2022-10-11T07:19:33.774Z,82.98
2022-10-11T07:22:01.378Z,82.82
2022-10-11T07:24:28.947Z,82.46
2022-10-11T07:26:56.592Z,81.94
2022-10-11T07:29:24.184Z,81.01
2022-10-11T07:31:51.693Z,80.66
2022-10-11T07:34:21.083Z,80.73
2022-10-11T07:36:48.661Z,79.97
2022-10-11T07:39:15.965Z,80.92
2022-10-11T07:41:45.945Z,80.37
2022-10-11T07:44:14.692Z,80.75
2022-10-11T07:46:42.681Z,81.08
2022-10-11T07:49:10.004Z,79.83
2022-10-11T07:51:37.400Z,79.53
2022-10-11T07:54:07.446Z,79.75
2022-10-11T07:56:35.170Z,79.42
2022-10-11T07:59:06.074Z,78.77
2022-10-11T08:01:33.619Z,77.98
2022-10-11T08:04:01.119Z,78.27
2022-10-11T08:06:32.853Z,79.32
2022-10-11T08:09:02.251Z,77.74
2022-10-11T08:11:33.690Z,77.66
2022-10-11T08:14:02.009Z,78.33
2022-10-11T08:16:29.448Z,77.65
2022-10-11T08:18:57.335Z,77.17
2022-10-11T08:21:26.587Z,76.54
2022-10-11T08:23:53.981Z,77.84
2022-10-11T08:26:21.897Z,76.86
2022-10-11T08:28:49.617Z,74.72
2022-10-11T08:31:17.459Z,76.22
2022-10-11T08:33:44.970Z,75.89
2022-10-11T08:36:13.758Z,75.08
2022-10-11T08:38:41.867Z,75.84
2022-10-11T08:47:23.897Z,74.83
2022-10-11T08:49:51.842Z,74.31
2022-10-11T08:52:24.442Z,74.81
2022-10-11T08:54:58.534Z,74.20
2022-10-11T08:57:29.883Z,73.24
2022-10-11T08:59:59.882Z,72.49
2022-10-11T09:05:31.495Z,73.90
2022-10-11T09:08:22.775Z,71.30
2022-10-11T09:22:01.082Z,71.27
2022-10-11T09:30:16.744Z,70.91
2022-10-11T09:32:51.992Z,71.34
2022-10-11T09:35:22.359Z,71.03
2022-10-11T09:38:01.342Z,71.02
2022-10-11T09:41:08.380Z,69.97
2022-10-11T09:43:35.880Z,71.16
2022-10-11T09:46:03.596Z,71.11
2022-10-11T09:48:41.658Z,70.00
2022-10-11T09:51:17.456Z,69.95
2022-10-11T09:53:56.276Z,69.67
2022-10-11T09:56:26.949Z,69.08
2022-10-11T10:07:32.968Z,68.34
2022-10-11T10:10:29.281Z,69.12
2022-10-11T10:13:00.383Z,69.14
2022-10-11T10:15:38.441Z,68.60
2022-10-11T10:18:10.705Z,68.61
2022-10-11T10:20:38.660Z,67.20
2022-10-11T10:23:26.976Z,67.40
2022-10-11T10:26:18.641Z,66.95
2022-10-11T10:32:13.408Z,65.65
2022-10-11T10:35:03.187Z,66.56
2022-10-11T10:37:39.901Z,66.44
2022-10-11T10:40:16.380Z,65.26
2022-10-11T10:42:43.782Z,65.27
2022-10-11T10:45:21.385Z,64.74
2022-10-11T10:50:58.727Z,63.99
2022-10-11T10:53:38.571Z,64.05
2022-10-11T10:56:12.790Z,62.16
2022-10-11T11:01:39.296Z,63.73
2022-10-11T11:04:31.014Z,63.39
2022-10-11T11:07:27.195Z,62.26
2022-10-11T11:10:04.015Z,64.56
2022-10-11T11:18:18.515Z,61.88
2022-10-11T11:26:47.268Z,60.96
2022-10-11T11:29:40.190Z,59.99
2022-10-11T11:34:49.990Z,60.81
2022-10-11T11:40:05.562Z,58.52
2022-10-11T11:42:49.007Z,56.69
2022-10-11T11:48:03.008Z,57.97
2022-10-11T11:50:37.539Z,56.86
2022-10-11T11:53:12.510Z,57.14
2022-10-11T11:56:15.308Z,56.81
2022-10-11T11:58:53.787Z,56.27
2022-10-11T12:04:41.259Z,54.29
2022-10-11T12:09:52.804Z,56.74
2022-10-11T12:20:39.050Z,53.40
2022-10-11T12:29:29.065Z,51.72
2022-10-11T12:39:58.494Z,53.69
2022-10-11T12:45:29.644Z,53.09
2022-10-11T12:48:23.180Z,52.25
2022-10-11T12:54:26.058Z,53.15
2022-10-11T12:57:14.458Z,53.51
2022-10-11T12:59:45.142Z,54.64
2022-10-11T13:05:09.329Z,54.22
2022-10-11T13:07:37.123Z,56.08
2022-10-11T13:10:06.360Z,56.52
2022-10-11T13:12:42.277Z,55.60
2022-10-11T13:15:15.993Z,55.88
2022-10-11T13:17:43.880Z,55.74
2022-10-11T13:22:53.356Z,56.38
2022-10-11T13:25:24.475Z,57.02
2022-10-11T13:27:54.372Z,57.45
2022-10-11T13:30:29.228Z,56.94
2022-10-11T13:32:58.087Z,55.95
2022-10-11T13:38:08.304Z,57.76
2022-10-11T13:40:36.904Z,57.47
2022-10-11T13:43:06.550Z,58.66
2022-10-11T13:45:37.219Z,58.20
2022-10-11T13:48:05.329Z,58.82
2022-10-11T13:50:34.725Z,59.54
2022-10-11T13:53:21.653Z,59.04
2022-10-11T13:56:00.311Z,58.79
2022-10-11T14:01:28.112Z,59.16
2022-10-11T14:04:00.661Z,59.39
2022-10-11T14:06:53.167Z,60.27
2022-10-11T14:09:28.018Z,60.68
2022-10-11T14:11:56.474Z,60.83
2022-10-11T14:14:42.466Z,60.75
2022-10-11T14:20:25.150Z,62.36
2022-10-11T14:22:55.429Z,62.61
2022-10-11T14:25:23.397Z,63.24
2022-10-11T14:27:51.500Z,63.81
2022-10-11T14:30:26.511Z,64.63
2022-10-11T14:32:57.564Z,65.17
2022-10-11T14:35:32.532Z,65.99
2022-10-11T14:38:01.016Z,66.78
2022-10-11T14:40:31.277Z,67.20
2022-10-11T14:42:59.525Z,67.30
2022-10-11T14:45:27.564Z,68.50
2022-10-11T14:47:56.925Z,68.77
2022-10-11T14:50:48.647Z,69.45
2022-10-11T14:53:17.005Z,69.33
2022-10-11T14:55:45.589Z,69.48
2022-10-11T14:58:16.476Z,70.01
2022-10-11T15:00:45.543Z,70.42
2022-10-11T15:03:19.992Z,70.62
2022-10-11T15:05:51.123Z,71.18
2022-10-11T15:08:19.237Z,71.43
2022-10-11T15:10:46.916Z,72.12
2022-10-11T15:13:14.947Z,72.23
2022-10-11T15:15:43.088Z,72.08
2022-10-11T15:18:17.055Z,72.08
2022-10-11T15:20:46.910Z,72.74
2022-10-11T15:23:15.010Z,73.31
2022-10-11T15:25:43.178Z,73.38
2022-10-11T15:28:22.212Z,73.64
2022-10-11T15:30:49.930Z,74.21
2022-10-11T15:33:17.662Z,74.11
2022-10-11T15:35:45.431Z,74.04
2022-10-11T15:38:20.403Z,74.11
2022-10-11T15:40:49.421Z,73.96
2022-10-11T15:43:20.764Z,74.08
2022-10-11T15:45:51.285Z,74.81
2022-10-11T15:48:20.135Z,74.07
2022-10-11T15:50:48.379Z,74.82
2022-10-11T15:53:19.460Z,75.42
2022-10-11T15:55:51.162Z,74.80
2022-10-11T15:58:24.309Z,75.18
2022-10-11T16:00:54.527Z,75.31
2022-10-11T16:03:25.793Z,76.26
2022-10-11T16:06:05.226Z,75.45
2022-10-11T16:08:40.349Z,75.54
2022-10-11T16:11:10.741Z,75.68
2022-10-11T16:13:38.511Z,76.15
2022-10-11T16:16:08.945Z,76.23
2022-10-11T16:18:37.329Z,76.02
2022-10-11T16:21:09.366Z,75.88
2022-10-11T16:23:37.406Z,76.08
2022-10-11T16:26:08.535Z,76.27
2022-10-11T16:28:36.776Z,75.81
2022-10-11T16:31:09.502Z,76.25
2022-10-11T16:33:46.345Z,77.10
2022-10-11T16:36:36.297Z,76.61
2022-10-11T16:39:07.205Z,77.80
2022-10-11T16:41:34.849Z,76.91
2022-10-11T16:44:02.702Z,76.96
2022-10-11T16:46:31.720Z,76.58
2022-10-11T16:49:07.988Z,76.62
2022-10-11T16:51:40.704Z,76.65
2022-10-11T16:54:08.319Z,76.35
2022-10-11T16:56:39.924Z,77.19
2022-10-11T16:59:08.841Z,77.04
2022-10-11T17:01:37.149Z,77.02
2022-10-11T17:04:05.417Z,77.20
2022-10-11T17:06:33.328Z,77.28
2022-10-11T17:09:01.124Z,77.69
2022-10-11T17:11:28.920Z,77.27
2022-10-11T17:13:56.674Z,77.33
2022-10-11T17:16:24.375Z,77.74
2022-10-11T17:18:52.102Z,77.12
2022-10-11T17:21:21.602Z,77.19
2022-10-11T17:23:49.727Z,77.47
2022-10-11T17:26:32.120Z,77.77
2022-10-11T17:29:17.475Z,77.85
2022-10-11T17:31:49.238Z,78.31
2022-10-11T17:34:17.677Z,77.75
2022-10-11T17:36:45.362Z,78.20
2022-10-11T17:39:16.181Z,77.88
2022-10-11T17:41:44.616Z,77.78
2022-10-11T17:44:13.447Z,77.98
2022-10-11T17:46:41.024Z,78.67
2022-10-11T17:49:09.418Z,78.20
2022-10-11T17:51:37.857Z,78.53
2022-10-11T17:54:06.448Z,78.69
2022-10-11T17:56:37.971Z,78.77
2022-10-11T17:59:06.263Z,78.75
2022-10-11T18:01:34.506Z,79.02
2022-10-11T18:04:04.857Z,78.99
2022-10-11T18:06:38.845Z,78.43
2022-10-11T18:09:06.475Z,78.99
2022-10-11T18:11:34.222Z,79.13
2022-10-11T18:14:02.070Z,79.22
2022-10-11T18:16:31.483Z,79.46
2022-10-11T18:19:02.258Z,79.41
2022-10-11T18:21:34.725Z,79.42
2022-10-11T18:24:05.308Z,79.88
2022-10-11T18:26:33.464Z,79.68
2022-10-11T18:29:01.877Z,79.38
2022-10-11T18:31:31.522Z,79.40
2022-10-11T18:34:00.126Z,79.51
2022-10-11T18:36:30.029Z,79.75
2022-10-11T18:39:01.746Z,79.36
2022-10-11T18:41:32.135Z,80.12
2022-10-11T18:44:02.723Z,79.90
2022-10-11T18:46:31.443Z,79.45
2022-10-11T18:49:01.632Z,80.28
2022-10-11T18:51:32.799Z,80.16
2022-10-11T18:54:01.094Z,80.55
2022-10-11T18:56:31.185Z,79.82
2022-10-11T18:58:59.947Z,79.99
2022-10-11T19:01:31.115Z,80.02
2022-10-11T19:04:01.109Z,80.38
2022-10-11T19:06:33.536Z,80.71
2022-10-11T19:09:09.630Z,80.68
2022-10-11T19:11:38.129Z,80.44
2022-10-11T19:14:08.802Z,80.82
2022-10-11T19:16:39.980Z,80.58
2022-10-11T19:19:09.849Z,80.40
2022-10-11T19:21:38.556Z,80.26
2022-10-11T19:24:06.746Z,80.48
2022-10-11T19:26:37.396Z,80.42
2022-10-11T19:29:12.122Z,81.30
2022-10-11T19:31:43.771Z,81.13
2022-10-11T19:34:12.301Z,81.17
2022-10-11T19:36:43.031Z,81.28
2022-10-11T19:39:15.137Z,81.57
2022-10-11T19:41:44.241Z,81.13
2022-10-11T19:44:13.307Z,80.82
2022-10-11T19:46:51.563Z,80.66
2022-10-11T19:49:25.333Z,81.30
2022-10-11T19:51:55.681Z,81.20
2022-10-11T19:54:23.646Z,81.34
2022-10-11T19:56:51.335Z,81.70
2022-10-11T19:59:19.013Z,81.82
2022-10-11T20:01:51.991Z,81.47
2022-10-11T20:07:09.008Z,82.00
2022-10-11T20:09:37.003Z,81.88
2022-10-11T20:12:05.209Z,81.65
2022-10-11T20:14:32.907Z,81.30
2022-10-11T20:17:00.574Z,81.76
2022-10-11T20:19:31.133Z,81.53
2022-10-11T20:22:00.702Z,81.64
2022-10-11T20:24:33.415Z,81.06
2022-10-11T20:27:04.101Z,81.84
2022-10-11T20:29:31.622Z,81.73
2022-10-11T20:31:59.364Z,81.65
2022-10-11T20:34:27.982Z,80.91
2022-10-11T20:36:55.729Z,81.26
2022-10-11T20:39:23.988Z,81.94
2022-10-11T20:41:51.520Z,82.22
2022-10-11T20:44:19.187Z,82.69
2022-10-11T20:46:46.727Z,82.68
2022-10-11T20:49:14.228Z,82.46
2022-10-11T20:51:42.979Z,82.66
2022-10-11T20:54:11.135Z,82.10
2022-10-11T20:56:39.661Z,82.35
2022-10-11T20:59:08.243Z,83.00
2022-10-11T21:01:38.711Z,82.28
2022-10-11T21:04:08.588Z,82.72
2022-10-11T21:06:36.025Z,82.47
2022-10-11T21:09:03.508Z,82.86
2022-10-11T21:11:33.663Z,82.05
2022-10-11T21:14:03.906Z,82.02
2022-10-11T21:16:32.472Z,82.78
2022-10-11T21:19:01.970Z,82.39
2022-10-11T21:21:30.322Z,83.15
2022-10-11T21:24:00.159Z,82.76
2022-10-11T21:26:28.401Z,82.30
2022-10-11T21:28:55.792Z,82.92
2022-10-11T21:31:23.854Z,82.40
2022-10-11T21:33:51.404Z,82.86
2022-10-11T21:36:22.201Z,83.08
2022-10-11T21:38:52.329Z,83.19
2022-10-11T21:41:22.627Z,83.09
2022-10-11T21:43:50.442Z,83.44
2022-10-11T21:48:56.286Z,82.40
2022-10-11T21:51:26.612Z,83.28
2022-10-11T21:53:55.295Z,83.26
2022-10-11T21:56:22.802Z,83.29
2022-10-11T21:58:51.192Z,83.07
2022-10-11T22:01:19.714Z,82.84
2022-10-11T22:03:47.704Z,82.77
2022-10-11T22:06:15.629Z,83.08
2022-10-11T22:08:43.207Z,83.23
2022-10-11T22:11:11.750Z,83.64
2022-10-11T22:13:39.222Z,83.61
2022-10-11T22:16:09.254Z,84.09
2022-10-11T22:18:36.968Z,83.54
2022-10-11T22:23:43.305Z,83.67
2022-10-11T22:26:14.705Z,84.07
2022-10-11T22:28:42.843Z,83.68
2022-10-11T22:31:11.361Z,83.76
2022-10-11T22:33:39.327Z,83.56
2022-10-11T22:36:09.989Z,83.22
2022-10-11T22:38:40.314Z,83.75
2022-10-11T22:41:08.398Z,84.09
2022-10-11T22:43:35.862Z,83.71
2022-10-11T22:46:03.526Z,83.05
2022-10-11T22:48:31.219Z,83.57
2022-10-11T22:50:58.705Z,84.18
2022-10-11T22:53:26.183Z,83.62
2022-10-11T22:55:54.031Z,83.06
2022-10-11T22:58:21.687Z,84.34
2022-10-11T23:00:51.561Z,84.47
2022-10-11T23:03:19.837Z,84.30
2022-10-11T23:05:56.627Z,84.28
2022-10-11T23:08:24.690Z,84.28
2022-10-11T23:10:52.691Z,84.30
2022-10-11T23:13:20.647Z,84.22
2022-10-11T23:15:48.645Z,84.28
2022-10-11T23:18:18.749Z,83.32
2022-10-11T23:20:46.069Z,84.70
2022-10-11T23:23:13.494Z,85.30
2022-10-11T23:25:40.852Z,85.45
2022-10-11T23:28:08.218Z,84.58
2022-10-11T23:30:35.596Z,84.72
2022-10-11T23:33:02.979Z,84.67
2022-10-11T23:35:30.309Z,84.38
2022-10-11T23:37:57.943Z,84.93
2022-10-11T23:40:25.337Z,84.66
2022-10-11T23:42:52.575Z,84.60
2022-10-11T23:45:19.997Z,84.60
2022-10-11T23:47:47.325Z,84.83
2022-10-11T23:50:14.802Z,84.74
2022-10-11T23:52:42.204Z,84.63
2022-10-11T23:55:09.807Z,84.42
2022-10-11T23:57:38.450Z,84.97
